sensor_id;sensor_type;location;lat;lon;timestamp;P1;durP1;ratioP1;P2;durP2;ratioP2
37284;SDS011;23172;53.550;9.964;2023-06-22T00:01:25;1999.90;;;999.90;;
37284;SDS011;23172;53.550;9.964;2023-06-22T00:06:27;1999.90;;;999.90;;
37284;SDS011;23172;53.550;9.964;2023-06-22T00:11:28;1999.90;;;999.90;;
37284;SDS011;23172;53.550;9.964;2023-06-22T00:16:34;1999.90;;;999.90;;
37284;SDS011;23172;53.550;9.964;2023-06-22T00:21:36;1999.90;;;999.90;;
37284;SDS011;23172;53.550;9.964;2023-06-22T00:26:38;1999.90;;;999.90;;
37284;SDS011;23172;53.550;9.964;2023-06-22T00:31:41;1999.90;;;999.90;;
37284;SDS011;23172;53.550;9.964;2023-06-22T00:36:43;1999.90;;;999.90;;
37284;SDS011;23172;53.550;9.964;2023-06-22T00:41:45;1999.90;;;999.90;;
37284;SDS011;23172;53.550;9.964;2023-06-22T00:46:48;1999.90;;;999.90;;
37284;SDS011;23172;53.550;9.964;2023-06-22T00:51:50;1999.90;;;999.90;;
37284;SDS011;23172;53.550;9.964;2023-06-22T00:56:53;1999.90;;;999.90;;
37284;SDS011;23172;53.550;9.964;2023-06-22T01:01:57;1999.90;;;999.90;;
37284;SDS011;23172;53.550;9.964;2023-06-22T01:07:01;1999.90;;;999.90;;
37284;SDS011;23172;53.550;9.964;2023-06-22T01:12:13;1999.90;;;999.90;;
37284;SDS011;23172;53.550;9.964;2023-06-22T01:17:19;1999.90;;;999.90;;
37284;SDS011;23172;53.550;9.964;2023-06-22T01:22:23;1999.90;;;999.90;;
37284;SDS011;23172;53.550;9.964;2023-06-22T01:27:32;1999.90;;;999.90;;
37284;SDS011;23172;53.550;9.964;2023-06-22T01:32:42;1999.90;;;999.90;;
37284;SDS011;23172;53.550;9.964;2023-06-22T01:37:45;1999.90;;;999.90;;
37284;SDS011;23172;53.550;9.964;2023-06-22T01:42:48;1999.90;;;999.90;;
37284;SDS011;23172;53.550;9.964;2023-06-22T01:47:52;1999.90;;;999.90;;
37284;SDS011;23172;53.550;9.964;2023-06-22T01:52:55;1999.90;;;999.90;;
37284;SDS011;23172;53.550;9.964;2023-06-22T01:57:57;1999.90;;;999.90;;
37284;SDS011;23172;53.550;9.964;2023-06-22T02:03:01;1999.90;;;999.90;;
37284;SDS011;23172;53.550;9.964;2023-06-22T02:08:10;1999.90;;;999.90;;
37284;SDS011;23172;53.550;9.964;2023-06-22T02:13:16;1999.90;;;999.90;;
37284;SDS011;23172;53.550;9.964;2023-06-22T02:18:20;1999.90;;;999.90;;
37284;SDS011;23172;53.550;9.964;2023-06-22T02:23:22;1999.90;;;999.90;;
37284;SDS011;23172;53.550;9.964;2023-06-22T02:28:24;1999.90;;;999.90;;
37284;SDS011;23172;53.550;9.964;2023-06-22T02:33:27;1999.90;;;999.90;;
37284;SDS011;23172;53.550;9.964;2023-06-22T02:38:29;1999.90;;;999.90;;
37284;SDS011;23172;53.550;9.964;2023-06-22T02:43:33;1999.90;;;999.90;;
37284;SDS011;23172;53.550;9.964;2023-06-22T02:48:36;1999.90;;;999.90;;
37284;SDS011;23172;53.550;9.964;2023-06-22T02:53:38;1999.90;;;999.90;;
37284;SDS011;23172;53.550;9.964;2023-06-22T02:58:40;1999.90;;;999.90;;
37284;SDS011;23172;53.550;9.964;2023-06-22T03:03:44;1999.90;;;999.90;;
37284;SDS011;23172;53.550;9.964;2023-06-22T03:08:46;1999.90;;;999.90;;
37284;SDS011;23172;53.550;9.964;2023-06-22T03:13:48;1999.90;;;999.90;;
37284;SDS011;23172;53.550;9.964;2023-06-22T03:18:53;1999.90;;;999.90;;
37284;SDS011;23172;53.550;9.964;2023-06-22T03:23:55;1999.90;;;999.90;;
37284;SDS011;23172;53.550;9.964;2023-06-22T03:28:57;1999.90;;;999.90;;
37284;SDS011;23172;53.550;9.964;2023-06-22T03:34:00;1999.90;;;999.90;;
37284;SDS011;23172;53.550;9.964;2023-06-22T03:39:02;1999.90;;;999.90;;
37284;SDS011;23172;53.550;9.964;2023-06-22T03:44:04;1999.90;;;999.90;;
37284;SDS011;23172;53.550;9.964;2023-06-22T03:49:07;1999.90;;;999.90;;
37284;SDS011;23172;53.550;9.964;2023-06-22T03:54:09;1999.90;;;999.90;;
37284;SDS011;23172;53.550;9.964;2023-06-22T03:59:11;1999.90;;;999.90;;
37284;SDS011;23172;53.550;9.964;2023-06-22T04:04:14;1999.90;;;999.90;;
37284;SDS011;23172;53.550;9.964;2023-06-22T04:09:16;1999.90;;;999.90;;
37284;SDS011;23172;53.550;9.964;2023-06-22T04:14:18;1999.90;;;999.90;;
37284;SDS011;23172;53.550;9.964;2023-06-22T04:19:21;1999.90;;;999.90;;
37284;SDS011;23172;53.550;9.964;2023-06-22T04:24:23;1999.90;;;999.90;;
37284;SDS011;23172;53.550;9.964;2023-06-22T04:29:25;1999.90;;;999.90;;
37284;SDS011;23172;53.550;9.964;2023-06-22T04:34:31;1999.90;;;999.90;;
37284;SDS011;23172;53.550;9.964;2023-06-22T04:39:33;1999.90;;;999.90;;
37284;SDS011;23172;53.550;9.964;2023-06-22T04:44:35;1999.90;;;999.90;;
37284;SDS011;23172;53.550;9.964;2023-06-22T04:49:39;1999.90;;;999.90;;
37284;SDS011;23172;53.550;9.964;2023-06-22T04:54:43;1999.90;;;999.90;;
37284;SDS011;23172;53.550;9.964;2023-06-22T04:59:47;1999.90;;;999.90;;
37284;SDS011;23172;53.550;9.964;2023-06-22T05:04:50;1999.90;;;999.90;;
37284;SDS011;23172;53.550;9.964;2023-06-22T05:09:56;1999.90;;;999.90;;
37284;SDS011;23172;53.550;9.964;2023-06-22T05:14:58;1999.90;;;999.90;;
37284;SDS011;23172;53.550;9.964;2023-06-22T05:20:03;1999.90;;;999.90;;
37284;SDS011;23172;53.550;9.964;2023-06-22T05:25:08;1999.90;;;999.90;;
37284;SDS011;23172;53.550;9.964;2023-06-22T05:30:11;1999.90;;;999.90;;
37284;SDS011;23172;53.550;9.964;2023-06-22T05:35:14;1999.90;;;999.90;;
37284;SDS011;23172;53.550;9.964;2023-06-22T05:40:16;1999.90;;;999.90;;
37284;SDS011;23172;53.550;9.964;2023-06-22T05:45:18;1999.90;;;999.90;;
37284;SDS011;23172;53.550;9.964;2023-06-22T05:50:21;1999.90;;;999.90;;
37284;SDS011;23172;53.550;9.964;2023-06-22T05:55:23;1999.90;;;999.90;;
37284;SDS011;23172;53.550;9.964;2023-06-22T06:00:25;1999.90;;;999.90;;
37284;SDS011;23172;53.550;9.964;2023-06-22T06:05:28;1999.90;;;999.90;;
37284;SDS011;23172;53.550;9.964;2023-06-22T06:10:30;1999.90;;;999.90;;
37284;SDS011;23172;53.550;9.964;2023-06-22T06:15:33;1999.90;;;999.90;;
37284;SDS011;23172;53.550;9.964;2023-06-22T06:20:37;1999.90;;;999.90;;
37284;SDS011;23172;53.550;9.964;2023-06-22T06:25:39;1999.90;;;999.90;;
37284;SDS011;23172;53.550;9.964;2023-06-22T06:30:41;1999.90;;;999.90;;
37284;SDS011;23172;53.550;9.964;2023-06-22T06:35:44;1999.90;;;999.90;;
37284;SDS011;23172;53.550;9.964;2023-06-22T06:40:46;1999.90;;;999.90;;
37284;SDS011;23172;53.550;9.964;2023-06-22T06:45:49;1999.90;;;999.90;;
37284;SDS011;23172;53.550;9.964;2023-06-22T06:50:52;1999.90;;;999.90;;
37284;SDS011;23172;53.550;9.964;2023-06-22T06:55:54;1999.90;;;999.90;;
37284;SDS011;23172;53.550;9.964;2023-06-22T07:00:56;1999.90;;;999.90;;
37284;SDS011;23172;53.550;9.964;2023-06-22T07:05:59;1999.90;;;999.90;;
37284;SDS011;23172;53.550;9.964;2023-06-22T07:11:01;1999.90;;;999.90;;
37284;SDS011;23172;53.550;9.964;2023-06-22T07:16:03;1999.90;;;999.90;;
37284;SDS011;23172;53.550;9.964;2023-06-22T07:21:06;1999.90;;;999.90;;
37284;SDS011;23172;53.550;9.964;2023-06-22T07:26:09;1999.90;;;999.90;;
37284;SDS011;23172;53.550;9.964;2023-06-22T07:31:12;1999.90;;;999.90;;
37284;SDS011;23172;53.550;9.964;2023-06-22T07:36:16;1999.90;;;999.90;;
37284;SDS011;23172;53.550;9.964;2023-06-22T07:41:18;1999.90;;;999.90;;
37284;SDS011;23172;53.550;9.964;2023-06-22T07:46:20;1999.90;;;999.90;;
37284;SDS011;23172;53.550;9.964;2023-06-22T07:51:24;1999.90;;;999.90;;
37284;SDS011;23172;53.550;9.964;2023-06-22T07:56:26;1999.90;;;999.90;;
37284;SDS011;23172;53.550;9.964;2023-06-22T08:01:28;1999.90;;;999.90;;
37284;SDS011;23172;53.550;9.964;2023-06-22T08:06:31;1999.90;;;999.90;;
37284;SDS011;23172;53.550;9.964;2023-06-22T08:11:33;1999.90;;;999.90;;
37284;SDS011;23172;53.550;9.964;2023-06-22T08:16:35;1999.90;;;999.90;;
37284;SDS011;23172;53.550;9.964;2023-06-22T08:21:38;1999.90;;;999.90;;
37284;SDS011;23172;53.550;9.964;2023-06-22T08:26:40;1999.90;;;999.90;;
37284;SDS011;23172;53.550;9.964;2023-06-22T08:31:42;1999.90;;;999.90;;
37284;SDS011;23172;53.550;9.964;2023-06-22T08:36:45;1999.90;;;999.90;;
37284;SDS011;23172;53.550;9.964;2023-06-22T08:41:52;1999.90;;;999.90;;
37284;SDS011;23172;53.550;9.964;2023-06-22T08:46:54;1999.90;;;999.90;;
37284;SDS011;23172;53.550;9.964;2023-06-22T08:51:57;1999.90;;;999.90;;
37284;SDS011;23172;53.550;9.964;2023-06-22T08:56:59;1999.90;;;999.90;;
37284;SDS011;23172;53.550;9.964;2023-06-22T09:02:01;1999.90;;;999.90;;
37284;SDS011;23172;53.550;9.964;2023-06-22T09:07:04;1999.90;;;999.90;;
37284;SDS011;23172;53.550;9.964;2023-06-22T09:12:07;1999.90;;;999.90;;
37284;SDS011;23172;53.550;9.964;2023-06-22T09:17:09;1999.90;;;999.90;;
37284;SDS011;23172;53.550;9.964;2023-06-22T09:22:13;1999.90;;;999.90;;
37284;SDS011;23172;53.550;9.964;2023-06-22T09:27:15;1999.90;;;999.90;;
37284;SDS011;23172;53.550;9.964;2023-06-22T09:32:17;1999.90;;;999.90;;
37284;SDS011;23172;53.550;9.964;2023-06-22T09:37:20;1999.90;;;999.90;;
37284;SDS011;23172;53.550;9.964;2023-06-22T09:42:22;1999.90;;;999.90;;
37284;SDS011;23172;53.550;9.964;2023-06-22T09:47:24;1999.90;;;999.90;;
37284;SDS011;23172;53.550;9.964;2023-06-22T09:52:27;1999.90;;;999.90;;
37284;SDS011;23172;53.550;9.964;2023-06-22T09:57:29;1999.90;;;999.90;;
37284;SDS011;23172;53.550;9.964;2023-06-22T10:02:31;1999.90;;;999.90;;
37284;SDS011;23172;53.550;9.964;2023-06-22T10:07:34;1999.90;;;999.90;;
37284;SDS011;23172;53.550;9.964;2023-06-22T10:12:41;1999.90;;;999.90;;
37284;SDS011;23172;53.550;9.964;2023-06-22T10:17:44;1999.90;;;999.90;;
37284;SDS011;23172;53.550;9.964;2023-06-22T10:22:47;1999.90;;;999.90;;
37284;SDS011;23172;53.550;9.964;2023-06-22T10:27:49;1999.90;;;999.90;;
37284;SDS011;23172;53.550;9.964;2023-06-22T10:32:51;1999.90;;;999.90;;
37284;SDS011;23172;53.550;9.964;2023-06-22T10:37:54;1999.90;;;999.90;;
37284;SDS011;23172;53.550;9.964;2023-06-22T10:42:56;1999.90;;;999.90;;
37284;SDS011;23172;53.550;9.964;2023-06-22T10:47:58;1999.90;;;999.90;;
37284;SDS011;23172;53.550;9.964;2023-06-22T10:53:01;1999.90;;;999.90;;
37284;SDS011;23172;53.550;9.964;2023-06-22T10:58:03;1999.90;;;999.90;;
37284;SDS011;23172;53.550;9.964;2023-06-22T11:03:05;1999.90;;;999.90;;
37284;SDS011;23172;53.550;9.964;2023-06-22T11:08:08;1999.90;;;999.90;;
37284;SDS011;23172;53.550;9.964;2023-06-22T11:13:10;1999.90;;;999.90;;
37284;SDS011;23172;53.550;9.964;2023-06-22T11:18:12;1999.90;;;999.90;;
37284;SDS011;23172;53.550;9.964;2023-06-22T11:23:15;1999.90;;;999.90;;
37284;SDS011;23172;53.550;9.964;2023-06-22T11:28:17;1999.90;;;999.90;;
37284;SDS011;23172;53.550;9.964;2023-06-22T11:33:19;1999.90;;;999.90;;
37284;SDS011;23172;53.550;9.964;2023-06-22T11:38:22;1999.90;;;999.90;;
37284;SDS011;23172;53.550;9.964;2023-06-22T11:43:24;1999.90;;;999.90;;
37284;SDS011;23172;53.550;9.964;2023-06-22T11:48:26;1999.90;;;999.90;;
37284;SDS011;23172;53.550;9.964;2023-06-22T11:53:38;1999.90;;;999.90;;
37284;SDS011;23172;53.550;9.964;2023-06-22T11:58:40;1999.90;;;999.90;;
37284;SDS011;23172;53.550;9.964;2023-06-22T12:03:42;1999.90;;;999.90;;
37284;SDS011;23172;53.550;9.964;2023-06-22T12:08:45;1999.90;;;999.90;;
37284;SDS011;23172;53.550;9.964;2023-06-22T12:13:47;1999.90;;;999.90;;
37284;SDS011;23172;53.550;9.964;2023-06-22T12:18:49;1999.90;;;999.90;;
37284;SDS011;23172;53.550;9.964;2023-06-22T12:23:52;1999.90;;;999.90;;
37284;SDS011;23172;53.550;9.964;2023-06-22T12:28:54;1999.90;;;999.90;;
37284;SDS011;23172;53.550;9.964;2023-06-22T12:33:56;1999.90;;;999.90;;
37284;SDS011;23172;53.550;9.964;2023-06-22T12:38:59;1999.90;;;999.90;;
37284;SDS011;23172;53.550;9.964;2023-06-22T12:44:01;1999.90;;;999.90;;
37284;SDS011;23172;53.550;9.964;2023-06-22T12:49:03;1999.90;;;999.90;;
37284;SDS011;23172;53.550;9.964;2023-06-22T12:54:07;1999.90;;;999.90;;
37284;SDS011;23172;53.550;9.964;2023-06-22T12:59:09;1999.90;;;999.90;;
37284;SDS011;23172;53.550;9.964;2023-06-22T13:04:11;1999.90;;;999.90;;
37284;SDS011;23172;53.550;9.964;2023-06-22T13:09:17;1999.90;;;999.90;;
37284;SDS011;23172;53.550;9.964;2023-06-22T13:14:20;1999.90;;;999.90;;
37284;SDS011;23172;53.550;9.964;2023-06-22T13:19:22;1999.90;;;999.90;;
37284;SDS011;23172;53.550;9.964;2023-06-22T13:24:25;1999.90;;;999.90;;
37284;SDS011;23172;53.550;9.964;2023-06-22T13:29:27;1999.90;;;999.90;;
37284;SDS011;23172;53.550;9.964;2023-06-22T13:34:29;1999.90;;;999.90;;
37284;SDS011;23172;53.550;9.964;2023-06-22T13:39:32;1999.90;;;999.90;;
37284;SDS011;23172;53.550;9.964;2023-06-22T13:44:34;1999.90;;;999.90;;
37284;SDS011;23172;53.550;9.964;2023-06-22T13:49:35;1999.90;;;999.90;;
37284;SDS011;23172;53.550;9.964;2023-06-22T13:54:39;1999.90;;;999.90;;
37284;SDS011;23172;53.550;9.964;2023-06-22T13:59:40;1999.90;;;999.90;;
37284;SDS011;23172;53.550;9.964;2023-06-22T14:04:42;1999.90;;;999.90;;
37284;SDS011;23172;53.550;9.964;2023-06-22T14:09:46;1999.90;;;999.90;;
37284;SDS011;23172;53.550;9.964;2023-06-22T14:14:48;1999.90;;;999.90;;
37284;SDS011;23172;53.550;9.964;2023-06-22T14:19:50;1999.90;;;999.90;;
37284;SDS011;23172;53.550;9.964;2023-06-22T14:24:53;1999.90;;;999.90;;
37284;SDS011;23172;53.550;9.964;2023-06-22T14:29:57;1999.90;;;999.90;;
37284;SDS011;23172;53.550;9.964;2023-06-22T14:34:59;1999.90;;;999.90;;
37284;SDS011;23172;53.550;9.964;2023-06-22T14:40:02;1999.90;;;999.90;;
37284;SDS011;23172;53.550;9.964;2023-06-22T14:45:05;1999.90;;;999.90;;
37284;SDS011;23172;53.550;9.964;2023-06-22T14:50:08;1999.90;;;999.90;;
37284;SDS011;23172;53.550;9.964;2023-06-22T14:55:11;1999.90;;;999.90;;
37284;SDS011;23172;53.550;9.964;2023-06-22T15:00:14;1999.90;;;999.90;;
37284;SDS011;23172;53.550;9.964;2023-06-22T15:05:16;1999.90;;;999.90;;
37284;SDS011;23172;53.550;9.964;2023-06-22T15:10:21;1999.90;;;999.90;;
37284;SDS011;23172;53.550;9.964;2023-06-22T15:15:24;1999.90;;;999.90;;
37284;SDS011;23172;53.550;9.964;2023-06-22T15:20:25;1999.90;;;999.90;;
37284;SDS011;23172;53.550;9.964;2023-06-22T15:25:29;1999.90;;;999.90;;
37284;SDS011;23172;53.550;9.964;2023-06-22T15:30:31;1999.90;;;999.90;;
37284;SDS011;23172;53.550;9.964;2023-06-22T15:35:32;1999.90;;;999.90;;
37284;SDS011;23172;53.550;9.964;2023-06-22T15:40:36;1999.90;;;999.90;;
37284;SDS011;23172;53.550;9.964;2023-06-22T15:45:37;1999.90;;;999.90;;
37284;SDS011;23172;53.550;9.964;2023-06-22T15:50:39;1999.90;;;999.90;;
37284;SDS011;23172;53.550;9.964;2023-06-22T15:55:42;1999.90;;;999.90;;
37284;SDS011;23172;53.550;9.964;2023-06-22T16:00:44;1999.90;;;999.90;;
37284;SDS011;23172;53.550;9.964;2023-06-22T16:05:48;1999.90;;;999.90;;
37284;SDS011;23172;53.550;9.964;2023-06-22T16:10:52;1999.90;;;999.90;;
37284;SDS011;23172;53.550;9.964;2023-06-22T16:15:53;1999.90;;;999.90;;
37284;SDS011;23172;53.550;9.964;2023-06-22T16:20:55;1999.90;;;999.90;;
37284;SDS011;23172;53.550;9.964;2023-06-22T16:25:58;1999.90;;;999.90;;
37284;SDS011;23172;53.550;9.964;2023-06-22T16:31:00;1999.90;;;999.90;;
37284;SDS011;23172;53.550;9.964;2023-06-22T16:36:02;1999.90;;;999.90;;
37284;SDS011;23172;53.550;9.964;2023-06-22T16:41:05;1999.90;;;999.90;;
37284;SDS011;23172;53.550;9.964;2023-06-22T16:46:09;1999.90;;;999.90;;
37284;SDS011;23172;53.550;9.964;2023-06-22T16:51:11;1999.90;;;999.90;;
37284;SDS011;23172;53.550;9.964;2023-06-22T16:56:14;1999.90;;;999.90;;
37284;SDS011;23172;53.550;9.964;2023-06-22T17:01:16;1999.90;;;999.90;;
37284;SDS011;23172;53.550;9.964;2023-06-22T17:06:18;1999.90;;;999.90;;
37284;SDS011;23172;53.550;9.964;2023-06-22T17:11:22;1999.90;;;999.90;;
37284;SDS011;23172;53.550;9.964;2023-06-22T17:16:24;1999.90;;;999.90;;
37284;SDS011;23172;53.550;9.964;2023-06-22T17:21:30;1999.90;;;999.90;;
37284;SDS011;23172;53.550;9.964;2023-06-22T17:26:34;1999.90;;;999.90;;
37284;SDS011;23172;53.550;9.964;2023-06-22T17:31:36;1999.90;;;999.90;;
37284;SDS011;23172;53.550;9.964;2023-06-22T17:36:39;1999.90;;;999.90;;
37284;SDS011;23172;53.550;9.964;2023-06-22T17:41:44;1999.90;;;999.90;;
37284;SDS011;23172;53.550;9.964;2023-06-22T17:46:50;1999.90;;;999.90;;
37284;SDS011;23172;53.550;9.964;2023-06-22T17:51:53;1999.90;;;999.90;;
37284;SDS011;23172;53.550;9.964;2023-06-22T17:56:56;1999.90;;;999.90;;
37284;SDS011;23172;53.550;9.964;2023-06-22T18:02:00;1999.90;;;999.90;;
37284;SDS011;23172;53.550;9.964;2023-06-22T18:07:07;1999.90;;;999.90;;
37284;SDS011;23172;53.550;9.964;2023-06-22T18:12:12;1999.90;;;999.90;;
37284;SDS011;23172;53.550;9.964;2023-06-22T18:17:14;1999.90;;;999.90;;
37284;SDS011;23172;53.550;9.964;2023-06-22T18:22:18;1999.90;;;999.90;;
37284;SDS011;23172;53.550;9.964;2023-06-22T18:27:21;1999.90;;;999.90;;
37284;SDS011;23172;53.550;9.964;2023-06-22T18:32:25;1999.90;;;999.90;;
37284;SDS011;23172;53.550;9.964;2023-06-22T18:37:29;1999.90;;;999.90;;
37284;SDS011;23172;53.550;9.964;2023-06-22T18:42:35;1999.90;;;999.90;;
37284;SDS011;23172;53.550;9.964;2023-06-22T18:47:40;1999.90;;;999.90;;
37284;SDS011;23172;53.550;9.964;2023-06-22T18:53:02;1999.90;;;999.90;;
37284;SDS011;23172;53.550;9.964;2023-06-22T18:58:16;1999.90;;;999.90;;
37284;SDS011;23172;53.550;9.964;2023-06-22T19:03:27;1999.90;;;999.90;;
37284;SDS011;23172;53.550;9.964;2023-06-22T19:14:07;1999.90;;;999.90;;
37284;SDS011;23172;53.550;9.964;2023-06-22T19:19:12;1999.90;;;999.90;;
37284;SDS011;23172;53.550;9.964;2023-06-22T19:24:27;1999.90;;;999.90;;
37284;SDS011;23172;53.550;9.964;2023-06-22T19:29:32;1999.90;;;999.90;;
37284;SDS011;23172;53.550;9.964;2023-06-22T19:34:34;1999.90;;;999.90;;
37284;SDS011;23172;53.550;9.964;2023-06-22T19:39:36;1999.90;;;999.90;;
37284;SDS011;23172;53.550;9.964;2023-06-22T19:44:39;1999.90;;;999.90;;
37284;SDS011;23172;53.550;9.964;2023-06-22T19:49:42;1999.90;;;999.90;;
37284;SDS011;23172;53.550;9.964;2023-06-22T19:54:44;1999.90;;;999.90;;
37284;SDS011;23172;53.550;9.964;2023-06-22T19:59:47;1999.90;;;999.90;;
37284;SDS011;23172;53.550;9.964;2023-06-22T20:04:49;1999.90;;;999.90;;
37284;SDS011;23172;53.550;9.964;2023-06-22T20:10:04;1999.90;;;999.90;;
37284;SDS011;23172;53.550;9.964;2023-06-22T20:15:17;1999.90;;;999.90;;
37284;SDS011;23172;53.550;9.964;2023-06-22T20:20:21;1999.90;;;999.90;;
37284;SDS011;23172;53.550;9.964;2023-06-22T20:25:24;1999.90;;;999.90;;
37284;SDS011;23172;53.550;9.964;2023-06-22T20:30:28;1999.90;;;999.90;;
37284;SDS011;23172;53.550;9.964;2023-06-22T20:35:31;1999.90;;;999.90;;
37284;SDS011;23172;53.550;9.964;2023-06-22T20:40:33;1999.90;;;999.90;;
37284;SDS011;23172;53.550;9.964;2023-06-22T20:45:37;1999.90;;;999.90;;
37284;SDS011;23172;53.550;9.964;2023-06-22T20:50:39;1999.90;;;999.90;;
37284;SDS011;23172;53.550;9.964;2023-06-22T20:55:43;1999.90;;;999.90;;
37284;SDS011;23172;53.550;9.964;2023-06-22T21:00:53;1999.90;;;999.90;;
37284;SDS011;23172;53.550;9.964;2023-06-22T21:06:00;1999.90;;;999.90;;
37284;SDS011;23172;53.550;9.964;2023-06-22T21:11:02;1999.90;;;999.90;;
37284;SDS011;23172;53.550;9.964;2023-06-22T21:16:05;1999.90;;;999.90;;
37284;SDS011;23172;53.550;9.964;2023-06-22T21:21:07;1999.90;;;999.90;;
37284;SDS011;23172;53.550;9.964;2023-06-22T21:26:09;1999.90;;;999.90;;
37284;SDS011;23172;53.550;9.964;2023-06-22T21:31:12;1999.90;;;999.90;;
37284;SDS011;23172;53.550;9.964;2023-06-22T21:36:14;1999.90;;;999.90;;
37284;SDS011;23172;53.550;9.964;2023-06-22T21:41:16;1999.90;;;999.90;;
37284;SDS011;23172;53.550;9.964;2023-06-22T21:46:19;1999.90;;;999.90;;
37284;SDS011;23172;53.550;9.964;2023-06-22T21:51:22;1999.90;;;999.90;;
37284;SDS011;23172;53.550;9.964;2023-06-22T21:56:24;1999.90;;;999.90;;
37284;SDS011;23172;53.550;9.964;2023-06-22T22:01:27;1999.90;;;999.90;;
37284;SDS011;23172;53.550;9.964;2023-06-22T22:06:29;1999.90;;;999.90;;
37284;SDS011;23172;53.550;9.964;2023-06-22T22:11:31;1999.90;;;999.90;;
37284;SDS011;23172;53.550;9.964;2023-06-22T22:16:34;1999.90;;;999.90;;
37284;SDS011;23172;53.550;9.964;2023-06-22T22:21:36;1999.90;;;999.90;;
37284;SDS011;23172;53.550;9.964;2023-06-22T22:26:38;1999.90;;;999.90;;
37284;SDS011;23172;53.550;9.964;2023-06-22T22:31:41;1999.90;;;999.90;;
37284;SDS011;23172;53.550;9.964;2023-06-22T22:36:43;1999.90;;;999.90;;
37284;SDS011;23172;53.550;9.964;2023-06-22T22:41:45;1999.90;;;999.90;;
37284;SDS011;23172;53.550;9.964;2023-06-22T22:46:48;1999.90;;;999.90;;
37284;SDS011;23172;53.550;9.964;2023-06-22T22:51:50;1999.90;;;999.90;;
37284;SDS011;23172;53.550;9.964;2023-06-22T22:56:52;1999.90;;;999.90;;
37284;SDS011;23172;53.550;9.964;2023-06-22T23:01:55;1999.90;;;999.90;;
37284;SDS011;23172;53.550;9.964;2023-06-22T23:06:57;1721.60;;;796.70;;
37284;SDS011;23172;53.550;9.964;2023-06-22T23:11:59;1166.25;;;341.38;;
37284;SDS011;23172;53.550;9.964;2023-06-22T23:17:02;1184.72;;;308.00;;
37284;SDS011;23172;53.550;9.964;2023-06-22T23:22:05;908.15;;;427.27;;
37284;SDS011;23172;53.550;9.964;2023-06-22T23:27:07;1247.60;;;386.92;;
37284;SDS011;23172;53.550;9.964;2023-06-22T23:32:10;1410.78;;;442.88;;
37284;SDS011;23172;53.550;9.964;2023-06-22T23:37:12;1280.00;;;501.05;;
37284;SDS011;23172;53.550;9.964;2023-06-22T23:42:14;1999.90;;;696.92;;
37284;SDS011;23172;53.550;9.964;2023-06-22T23:47:18;848.92;;;368.88;;
37284;SDS011;23172;53.550;9.964;2023-06-22T23:52:20;875.70;;;423.27;;
37284;SDS011;23172;53.550;9.964;2023-06-22T23:57:22;954.80;;;533.80;;
